createdAt,value
2018-12-02T08:49:57.392Z,83.33
2018-12-02T08:52:28.318Z,69.10
2018-12-02T08:54:59.074Z,109.67
2018-12-02T08:57:29.204Z,98.33
2018-12-02T09:00:00.052Z,84.00
2018-12-02T09:02:30.074Z,67.20
2018-12-02T09:04:59.964Z,78.22
2018-12-02T09:07:29.239Z,82.60
2018-12-02T09:09:59.722Z,63.60
2018-12-02T09:12:39.794Z,89.80
2018-12-02T09:15:12.269Z,64.58
2018-12-02T09:17:45.903Z,62.50
2018-12-02T09:20:20.672Z,67.45
2018-12-02T09:22:53.329Z,92.67
2018-12-02T09:25:31.385Z,86.80
2018-12-02T09:28:09.301Z,83.90
2018-12-02T09:30:41.289Z,63.48
2018-12-02T09:33:13.310Z,107.87
2018-12-02T09:35:44.074Z,73.20
2018-12-02T09:38:14.139Z,49.58
2018-12-02T09:40:44.738Z,50.50
2018-12-02T09:43:15.726Z,62.03
2018-12-02T09:45:46.117Z,42.67
2018-12-02T09:48:17.367Z,51.33
2018-12-02T09:50:47.418Z,57.98
2018-12-02T09:53:17.732Z,45.85
2018-12-02T09:55:49.338Z,41.45
2018-12-02T09:58:25.193Z,51.15
2018-12-02T10:00:56.083Z,51.50
2018-12-02T10:03:26.075Z,42.48
2018-12-02T10:05:55.333Z,45.88
2018-12-02T10:08:24.289Z,52.98
2018-12-02T10:10:53.850Z,58.05
2018-12-02T10:13:24.614Z,53.60
2018-12-02T10:15:55.657Z,56.53
2018-12-02T10:18:26.889Z,52.00
2018-12-02T10:20:57.464Z,56.73
2018-12-02T10:23:27.362Z,64.60
2018-12-02T10:25:57.265Z,59.05
2018-12-02T10:28:28.701Z,59.83
2018-12-02T10:31:00.056Z,52.67
2018-12-02T10:33:29.947Z,61.53
2018-12-02T10:36:00.782Z,53.70
2018-12-02T10:38:32.137Z,51.83
2018-12-02T10:41:02.664Z,50.45
2018-12-02T10:43:32.543Z,41.92
2018-12-02T10:46:03.434Z,48.45
2018-12-02T10:48:33.334Z,52.93
2018-12-02T10:51:03.208Z,51.88
2018-12-02T10:53:33.007Z,48.58
2018-12-02T10:56:02.878Z,52.48
2018-12-02T10:58:35.786Z,56.90
2018-12-02T11:01:11.912Z,55.98
2018-12-02T11:03:41.494Z,51.18
2018-12-02T11:06:11.549Z,45.00
2018-12-02T11:08:41.409Z,54.60
2018-12-02T11:11:11.359Z,46.45
2018-12-02T11:13:41.225Z,45.95
2018-12-02T11:16:12.158Z,47.48
2018-12-02T11:18:42.851Z,49.77
2018-12-02T11:21:12.982Z,47.60
2018-12-02T11:23:43.636Z,49.35
2018-12-02T11:26:13.833Z,40.28
2018-12-02T11:28:44.593Z,49.75
2018-12-02T11:31:14.600Z,48.33
2018-12-02T11:33:44.394Z,48.87
2018-12-02T11:36:14.382Z,49.80
2018-12-02T11:38:44.208Z,52.03
2018-12-02T11:41:15.041Z,51.25
2018-12-02T11:43:45.069Z,56.20
2018-12-02T11:46:14.907Z,58.00
2018-12-02T11:48:46.130Z,46.10
2018-12-02T11:51:16.662Z,52.08
2018-12-02T11:53:46.664Z,57.03
2018-12-02T11:56:16.477Z,53.38
2018-12-02T11:58:46.356Z,63.58
2018-12-02T12:01:16.220Z,43.25
2018-12-02T12:03:46.107Z,55.90
2018-12-02T12:06:17.744Z,49.65
2018-12-02T12:08:47.930Z,53.75
2018-12-02T12:11:18.529Z,53.13
2018-12-02T12:13:48.688Z,48.68
2018-12-02T12:16:18.587Z,49.38
2018-12-02T12:18:49.402Z,50.30
2018-12-02T12:21:20.239Z,57.25
2018-12-02T12:23:50.973Z,49.38
2018-12-02T12:26:21.150Z,56.55
2018-12-02T12:28:51.752Z,53.98
2018-12-02T12:31:21.886Z,58.70
2018-12-02T12:33:52.793Z,56.33
2018-12-02T12:36:22.665Z,56.25
2018-12-02T12:38:52.539Z,51.05
2018-12-02T12:41:22.227Z,46.98
2018-12-02T12:43:52.286Z,51.63
2018-12-02T12:46:23.110Z,56.73
2018-12-02T12:48:53.089Z,54.25
2018-12-02T12:51:23.671Z,49.50
2018-12-02T12:53:53.862Z,55.38
2018-12-02T12:56:23.721Z,47.58
2018-12-02T12:58:52.766Z,43.48
2018-12-02T13:01:21.762Z,42.30
2018-12-02T13:03:50.678Z,43.13
2018-12-02T13:06:19.772Z,41.00
2018-12-02T13:08:50.050Z,47.58
2018-12-02T13:11:23.603Z,47.80
2018-12-02T13:15:49.356Z,48.17
2018-12-02T13:21:40.098Z,59.03
2018-12-02T13:27:44.390Z,52.80
2018-12-02T13:30:16.270Z,60.43
2018-12-02T13:35:56.291Z,54.95
2018-12-02T13:38:31.225Z,65.72
2018-12-02T13:41:12.600Z,60.65
2018-12-02T13:43:59.437Z,66.12
2018-12-02T13:46:37.740Z,64.50
2018-12-02T13:49:14.396Z,66.70
2018-12-02T13:51:56.661Z,54.75
2018-12-02T13:54:40.336Z,57.08
2018-12-02T13:57:26.671Z,57.88
2018-12-02T14:02:42.900Z,61.92
2018-12-02T14:05:30.679Z,63.40
2018-12-02T14:10:48.591Z,72.03
2018-12-02T14:13:28.911Z,65.52
2018-12-02T14:16:09.214Z,78.40
2018-12-02T14:18:54.828Z,62.55
2018-12-02T14:30:22.569Z,72.25
2018-12-02T14:32:56.098Z,71.90
2018-12-02T14:35:30.709Z,79.00
2018-12-02T14:38:06.504Z,74.42
2018-12-02T14:40:42.510Z,63.98
2018-12-02T15:41:07.846Z,66.87
2018-12-02T15:43:44.986Z,70.42
2018-12-02T15:53:54.509Z,55.73
2018-12-02T16:05:08.472Z,69.40
2018-12-02T16:07:42.015Z,61.55
2018-12-02T16:54:07.072Z,57.65
2018-12-02T16:56:39.074Z,54.55
2018-12-02T16:59:23.006Z,66.12
2018-12-02T17:01:57.953Z,69.82
2018-12-02T17:07:07.171Z,77.10
2018-12-02T17:09:37.139Z,66.82
2018-12-02T17:12:07.992Z,62.15
2018-12-02T17:14:38.856Z,67.60
2018-12-02T17:17:09.817Z,71.33
2018-12-02T17:19:40.425Z,53.17
2018-12-02T17:22:10.634Z,73.10
2018-12-02T17:24:41.863Z,64.50
2018-12-02T17:39:22.994Z,52.15
2018-12-02T18:17:47.102Z,57.27
2018-12-02T18:20:18.672Z,65.25
2018-12-02T18:22:48.663Z,64.27
2018-12-02T18:25:20.605Z,61.55
